Time;durP1;ratioP1;P1;durP2;ratioP2;P2;SDS_P1;SDS_P2;PMS_P1;PMS_P2;Temp;Humidity;BMP_temperature;BMP_pressure;BME280_temperature;BME280_humidity;BME280_pressure;Samples;Min_cycle;Max_cycle;Signal;HPM_P1;HPM_P2
2023/09/02 00:01:16;;;;;;;12.90;8.57;;;15.80;99.90;;;;;;5050895;28;20519;-73
2023/09/02 00:03:41;;;;;;;15.53;9.37;;;15.80;99.90;;;;;;5064874;28;20206;-72
2023/09/02 00:06:07;;;;;;;16.43;9.47;;;15.80;99.90;;;;;;5071438;28;20285;-73
2023/09/02 00:08:33;;;;;;;18.10;9.40;;;15.70;99.90;;;;;;5065814;28;20175;-73
2023/09/02 00:10:58;;;;;;;14.10;9.87;;;15.70;99.90;;;;;;5051440;28;20163;-72
2023/09/02 00:13:24;;;;;;;17.83;9.20;;;15.70;99.90;;;;;;5051484;28;20228;-73
2023/09/02 00:15:49;;;;;;;16.30;10.10;;;15.70;99.90;;;;;;5050243;28;20210;-72
2023/09/02 00:18:15;;;;;;;15.50;9.77;;;15.70;99.90;;;;;;5051298;28;20408;-72
2023/09/02 00:20:41;;;;;;;18.40;10.17;;;15.70;99.90;;;;;;5051707;28;20171;-72
2023/09/02 00:23:06;;;;;;;15.03;9.53;;;15.70;99.90;;;;;;5060328;28;20206;-72
2023/09/02 00:25:32;;;;;;;18.67;9.73;;;15.70;99.90;;;;;;5071654;28;20225;-72
2023/09/02 00:27:57;;;;;;;14.17;9.77;;;15.60;99.90;;;;;;5071653;28;20406;-73
2023/09/02 00:30:23;;;;;;;16.73;10.47;;;15.70;99.90;;;;;;5068811;28;20256;-72
2023/09/02 00:32:49;;;;;;;13.90;10.07;;;15.60;99.90;;;;;;5071109;28;20174;-72
2023/09/02 00:35:15;;;;;;;13.57;9.27;;;15.60;99.90;;;;;;5071219;28;20753;-73
2023/09/02 00:37:40;;;;;;;17.30;10.10;;;15.50;99.90;;;;;;5058621;28;20171;-72
2023/09/02 00:40:09;;;;;;;13.30;9.10;;;15.50;99.90;;;;;;5050908;28;20189;-72
2023/09/02 00:42:36;;;;;;;13.57;8.93;;;15.40;99.90;;;;;;5050871;28;20210;-73
2023/09/02 00:45:02;;;;;;;14.53;10.20;;;15.40;99.90;;;;;;5051165;28;20195;-72
2023/09/02 00:47:28;;;;;;;13.93;9.70;;;15.40;99.90;;;;;;5051047;28;20492;-72
2023/09/02 00:49:54;;;;;;;20.70;10.03;;;15.30;99.90;;;;;;5064002;28;20169;-72
2023/09/02 00:52:20;;;;;;;15.03;9.10;;;15.30;99.90;;;;;;5053511;28;20293;-72
2023/09/02 00:54:46;;;;;;;12.47;9.63;;;15.30;99.90;;;;;;5051248;28;20273;-72
2023/09/02 00:57:11;;;;;;;14.87;9.53;;;15.30;99.90;;;;;;5051103;28;20167;-73
2023/09/02 00:59:38;;;;;;;12.70;8.90;;;15.30;99.90;;;;;;5051556;28;20236;-72
2023/09/02 01:02:04;;;;;;;15.73;8.57;;;15.30;99.90;;;;;;5049165;28;20206;-72
2023/09/02 01:04:32;;;;;;;15.70;9.60;;;15.30;99.90;;;;;;5051295;28;20194;-72
2023/09/02 01:06:59;;;;;;;12.00;8.80;;;15.30;99.90;;;;;;5057673;28;20574;-73
2023/09/02 01:09:24;;;;;;;18.80;9.10;;;15.20;99.90;;;;;;5071071;28;20185;-73
2023/09/02 01:11:50;;;;;;;13.90;8.73;;;15.20;99.90;;;;;;5070927;28;20178;-73
2023/09/02 01:14:16;;;;;;;10.63;9.07;;;15.20;99.90;;;;;;5070563;28;20206;-73
2023/09/02 01:16:42;;;;;;;12.57;8.60;;;15.20;99.90;;;;;;5070945;28;20543;-73
2023/09/02 01:19:16;;;;;;;15.83;10.30;;;15.10;99.90;;;;;;5066247;28;20177;-73
2023/09/02 01:22:13;;;;;;;15.97;9.57;;;15.20;99.90;;;;;;5050555;28;20198;-73
2023/09/02 01:25:26;;;;;;;18.00;10.63;;;15.20;99.90;;;;;;5050777;28;20226;-73
2023/09/02 01:27:59;;;;;;;18.97;10.47;;;15.10;99.90;;;;;;5045795;28;20277;-74
2023/09/02 01:30:30;;;;;;;18.57;10.77;;;15.10;99.90;;;;;;5051729;28;20625;-73
2023/09/02 01:32:57;;;;;;;18.53;10.80;;;15.10;99.90;;;;;;5050952;28;20644;-73
2023/09/02 01:35:29;;;;;;;12.30;9.93;;;15.10;99.90;;;;;;5070605;28;20201;-73
2023/09/02 01:37:57;;;;;;;16.50;10.60;;;15.10;99.90;;;;;;5070923;28;20170;-73
2023/09/02 01:40:25;;;;;;;15.73;10.53;;;15.10;99.90;;;;;;5070419;28;20180;-73
2023/09/02 01:42:56;;;;;;;12.73;9.80;;;15.10;99.90;;;;;;5067336;28;20574;-72
2023/09/02 01:45:26;;;;;;;24.20;10.57;;;15.00;99.90;;;;;;5057762;28;20194;-72
2023/09/02 01:47:52;;;;;;;14.47;10.20;;;15.00;99.90;;;;;;5062263;28;20237;-73
2023/09/02 01:50:21;;;;;;;16.00;11.57;;;15.00;99.90;;;;;;5050339;28;20179;-74
2023/09/02 01:52:47;;;;;;;20.20;11.53;;;14.90;99.90;;;;;;5052234;28;20178;-73
2023/09/02 01:55:15;;;;;;;12.47;10.23;;;14.90;99.90;;;;;;5054059;28;20199;-73
2023/09/02 01:57:41;;;;;;;19.17;10.57;;;14.90;99.90;;;;;;5054184;28;20181;-73
2023/09/02 02:00:08;;;;;;;17.30;10.47;;;14.90;99.90;;;;;;5052597;28;20270;-73
2023/09/02 02:02:36;;;;;;;14.80;11.63;;;14.90;99.90;;;;;;5054966;28;20752;-73
2023/09/02 02:05:06;;;;;;;15.90;11.20;;;14.90;99.90;;;;;;5054399;28;20249;-73
2023/09/02 02:07:39;;;;;;;19.90;11.83;;;14.90;99.90;;;;;;5057848;28;20185;-74
2023/09/02 02:10:08;;;;;;;26.30;12.17;;;14.90;99.90;;;;;;5061285;28;20607;-74
2023/09/02 02:12:34;;;;;;;18.77;11.43;;;14.90;99.90;;;;;;5056452;28;20186;-74
2023/09/02 02:14:59;;;;;;;20.03;11.73;;;14.90;99.90;;;;;;5073402;28;20198;-74
2023/09/02 02:17:25;;;;;;;19.37;11.93;;;15.00;99.90;;;;;;5073788;28;20236;-73
2023/09/02 02:19:51;;;;;;;22.60;11.60;;;15.00;99.90;;;;;;5073774;28;20205;-74
2023/09/02 02:22:16;;;;;;;21.23;12.37;;;14.90;99.90;;;;;;5072947;28;20203;-74
2023/09/02 02:24:42;;;;;;;20.60;11.53;;;14.90;99.90;;;;;;5073602;28;20198;-74
2023/09/02 02:27:08;;;;;;;20.97;12.70;;;14.90;99.90;;;;;;5071689;28;20269;-73
2023/09/02 02:29:34;;;;;;;18.33;12.43;;;14.90;99.90;;;;;;5073676;28;20276;-73
2023/09/02 02:31:59;;;;;;;25.00;11.70;;;14.90;99.90;;;;;;5073492;28;20181;-74
2023/09/02 02:34:25;;;;;;;17.37;11.70;;;14.90;99.90;;;;;;5073259;28;20237;-73
2023/09/02 02:36:51;;;;;;;17.83;12.67;;;14.90;99.90;;;;;;5073501;28;20690;-73
2023/09/02 02:39:17;;;;;;;20.13;12.03;;;14.90;99.90;;;;;;5073567;28;20170;-74
2023/09/02 02:41:42;;;;;;;19.53;11.73;;;14.90;99.90;;;;;;5072932;28;20190;-73
2023/09/02 02:44:09;;;;;;;20.53;13.30;;;14.90;99.90;;;;;;5073161;28;20712;-73
2023/09/02 02:46:34;;;;;;;26.33;13.97;;;15.00;99.90;;;;;;5073390;28;20235;-73
2023/09/02 02:49:00;;;;;;;32.37;13.90;;;15.10;99.90;;;;;;5073351;28;20587;-73
2023/09/02 02:51:26;;;;;;;38.37;14.03;;;15.00;99.90;;;;;;5073179;28;20174;-73
2023/09/02 02:53:51;;;;;;;58.97;16.53;;;15.00;99.90;;;;;;5073207;28;20182;-74
2023/09/02 02:56:17;;;;;;;40.43;15.07;;;15.00;99.90;;;;;;5073121;28;20619;-73
2023/09/02 02:58:43;;;;;;;38.87;15.17;;;15.10;99.90;;;;;;5073330;28;20257;-74
2023/09/02 03:01:11;;;;;;;61.40;17.07;;;15.10;99.90;;;;;;5073041;28;20201;-73
2023/09/02 03:03:36;;;;;;;44.30;16.60;;;15.10;99.90;;;;;;5072873;28;20198;-73
2023/09/02 03:06:03;;;;;;;44.93;15.83;;;15.10;99.90;;;;;;5073016;28;20235;-74
2023/09/02 03:08:29;;;;;;;39.23;16.63;;;15.00;99.90;;;;;;5071640;28;20212;-73
2023/09/02 03:10:57;;;;;;;35.20;15.87;;;15.00;99.90;;;;;;5071760;28;20246;-72
2023/09/02 03:13:24;;;;;;;28.87;16.03;;;15.10;99.90;;;;;;5072787;28;20515;-73
2023/09/02 03:15:50;;;;;;;31.10;15.80;;;15.10;99.90;;;;;;5071542;28;20209;-72
2023/09/02 03:18:16;;;;;;;36.10;16.73;;;15.10;99.90;;;;;;5072859;28;20182;-73
2023/09/02 03:20:42;;;;;;;33.23;16.57;;;15.10;99.90;;;;;;5072216;28;20181;-73
2023/09/02 03:23:07;;;;;;;34.07;16.20;;;15.10;99.90;;;;;;5072262;28;20213;-73
2023/09/02 03:25:34;;;;;;;27.97;16.00;;;15.10;99.90;;;;;;5072719;28;20190;-73
2023/09/02 03:28:00;;;;;;;36.97;16.40;;;15.10;99.90;;;;;;5072756;28;20225;-73
2023/09/02 03:30:26;;;;;;;33.53;16.00;;;15.10;99.90;;;;;;5072659;28;20580;-72
2023/09/02 03:32:52;;;;;;;29.37;14.70;;;15.10;99.90;;;;;;5072295;28;20185;-73
2023/09/02 03:35:18;;;;;;;33.47;15.40;;;15.10;99.90;;;;;;5072357;28;20222;-74
2023/09/02 03:37:44;;;;;;;29.00;15.30;;;15.10;99.90;;;;;;5072541;28;20648;-73
2023/09/02 03:40:09;;;;;;;29.20;14.90;;;15.10;99.90;;;;;;5072305;28;20182;-72
2023/09/02 03:42:35;;;;;;;31.17;14.43;;;15.00;99.90;;;;;;5071857;28;20244;-72
2023/09/02 03:45:00;;;;;;;30.80;14.43;;;15.00;99.90;;;;;;5072321;28;20228;-73
2023/09/02 03:47:33;;;;;;;25.13;13.20;;;15.00;99.90;;;;;;5072206;28;20178;-73
2023/09/02 03:49:59;;;;;;;26.17;14.17;;;15.00;99.90;;;;;;5072384;28;20219;-72
2023/09/02 03:52:24;;;;;;;26.97;13.20;;;14.90;99.90;;;;;;5071713;28;20182;-73
2023/09/02 03:54:50;;;;;;;23.47;13.10;;;14.90;99.90;;;;;;5072174;28;20234;-74
2023/09/02 03:57:16;;;;;;;28.10;12.27;;;14.90;99.90;;;;;;5071986;28;20178;-73
2023/09/02 03:59:41;;;;;;;23.47;13.10;;;14.80;99.90;;;;;;5072097;28;20182;-74
2023/09/02 04:02:07;;;;;;;20.63;12.63;;;14.80;99.90;;;;;;5071611;28;20202;-73
2023/09/02 04:04:33;;;;;;;17.40;12.07;;;14.90;99.90;;;;;;5071964;28;20204;-73
2023/09/02 04:06:59;;;;;;;19.77;12.97;;;14.80;99.90;;;;;;5072013;28;20174;-74
2023/09/02 04:09:25;;;;;;;18.87;11.23;;;14.90;99.90;;;;;;5071887;28;20170;-73
2023/09/02 04:11:50;;;;;;;22.10;11.53;;;14.90;99.90;;;;;;5071589;28;20185;-73
2023/09/02 04:14:16;;;;;;;17.93;11.70;;;14.90;99.90;;;;;;5071296;28;20202;-73
2023/09/02 04:16:41;;;;;;;18.17;12.23;;;14.90;99.90;;;;;;5071715;28;20181;-73
2023/09/02 04:19:08;;;;;;;18.90;12.07;;;14.90;99.90;;;;;;5070476;28;20196;-73
2023/09/02 04:21:33;;;;;;;18.40;12.17;;;14.90;99.90;;;;;;5069810;28;20178;-73
2023/09/02 04:24:00;;;;;;;23.50;12.73;;;14.90;99.90;;;;;;5071531;28;20347;-73
2023/09/02 04:26:26;;;;;;;22.93;12.20;;;14.90;99.90;;;;;;5071503;28;20173;-73
2023/09/02 04:28:54;;;;;;;20.00;12.47;;;14.90;99.90;;;;;;5071865;28;20174;-73
2023/09/02 04:31:19;;;;;;;20.83;12.43;;;14.90;99.90;;;;;;5071560;28;20174;-74
2023/09/02 04:33:45;;;;;;;19.93;12.57;;;14.90;99.90;;;;;;5071504;28;20177;-74
2023/09/02 04:36:11;;;;;;;20.13;12.97;;;14.90;99.90;;;;;;5071445;28;20178;-75
2023/09/02 04:38:37;;;;;;;23.10;13.20;;;14.90;99.90;;;;;;5072176;28;20632;-74
2023/09/02 04:41:06;;;;;;;23.57;14.90;;;15.00;99.90;;;;;;5071511;28;20197;-74
2023/09/02 04:43:33;;;;;;;27.73;15.17;;;15.00;99.90;;;;;;5070022;28;20209;-73
2023/09/02 04:46:03;;;;;;;29.47;14.87;;;15.00;99.90;;;;;;5071600;28;20186;-73
2023/09/02 04:48:29;;;;;;;38.83;15.87;;;15.00;99.90;;;;;;5071460;28;20174;-74
2023/09/02 04:50:55;;;;;;;42.10;17.83;;;15.10;99.90;;;;;;5071728;28;20605;-73
2023/09/02 04:53:21;;;;;;;56.90;18.70;;;15.10;99.90;;;;;;5071098;28;20189;-74
2023/09/02 04:55:48;;;;;;;50.30;18.03;;;15.10;99.90;;;;;;5071943;28;20193;-73
2023/09/02 04:58:14;;;;;;;66.07;18.17;;;15.10;99.90;;;;;;5071263;28;20181;-73
2023/09/02 05:00:40;;;;;;;62.03;18.57;;;15.10;99.90;;;;;;5070134;28;20656;-74
2023/09/02 05:03:06;;;;;;;52.43;18.43;;;15.10;99.90;;;;;;5070867;28;20202;-74
2023/09/02 05:05:32;;;;;;;56.47;17.37;;;15.10;99.90;;;;;;5071373;28;20307;-73
2023/09/02 05:07:58;;;;;;;57.20;19.27;;;15.20;99.90;;;;;;5071649;28;20185;-73
2023/09/02 05:10:24;;;;;;;65.27;19.13;;;15.20;99.90;;;;;;5071180;28;20257;-73
2023/09/02 05:12:50;;;;;;;62.13;18.67;;;15.30;99.90;;;;;;5070949;28;20270;-74
2023/09/02 05:15:16;;;;;;;53.30;18.33;;;15.30;99.90;;;;;;5071090;28;20640;-73
2023/09/02 05:17:42;;;;;;;57.60;18.00;;;15.40;99.90;;;;;;5071277;28;20184;-73
2023/09/02 05:20:09;;;;;;;62.93;17.53;;;15.40;99.90;;;;;;5070952;28;20245;-74
2023/09/02 05:22:35;;;;;;;50.37;16.40;;;15.40;99.90;;;;;;5070109;28;20664;-73
2023/09/02 05:25:01;;;;;;;45.47;16.97;;;15.40;99.90;;;;;;5070960;28;20201;-73
2023/09/02 05:27:27;;;;;;;51.57;16.90;;;15.40;99.90;;;;;;5072655;28;20509;-73
2023/09/02 05:29:52;;;;;;;41.67;16.53;;;15.40;99.90;;;;;;5074923;28;20220;-74
2023/09/02 05:32:18;;;;;;;50.27;16.17;;;15.40;99.90;;;;;;5074321;28;20292;-73
2023/09/02 05:34:44;;;;;;;63.77;16.77;;;15.50;99.90;;;;;;5074672;28;20186;-73
2023/09/02 05:37:09;;;;;;;57.47;16.77;;;15.50;99.90;;;;;;5074498;28;20542;-73
2023/09/02 05:39:35;;;;;;;58.80;16.37;;;15.50;99.90;;;;;;5074495;28;20182;-73
2023/09/02 05:42:01;;;;;;;40.83;16.73;;;15.40;99.90;;;;;;5073904;28;20648;-73
2023/09/02 05:44:26;;;;;;;49.33;15.93;;;15.40;99.90;;;;;;5072861;28;20190;-73
2023/09/02 05:46:52;;;;;;;41.00;15.67;;;15.50;99.90;;;;;;5074382;28;20309;-73
2023/09/02 05:49:18;;;;;;;52.03;15.57;;;15.50;99.90;;;;;;5074517;28;20896;-73
2023/09/02 05:51:43;;;;;;;45.10;15.80;;;15.50;99.90;;;;;;5074136;28;20220;-73
2023/09/02 05:54:09;;;;;;;57.63;15.83;;;15.50;99.90;;;;;;5072750;28;20194;-73
2023/09/02 05:56:38;;;;;;;56.47;14.77;;;15.50;99.90;;;;;;5074170;28;20628;-73
2023/09/02 05:59:04;;;;;;;66.27;15.40;;;15.60;99.90;;;;;;5074157;28;20194;-73
2023/09/02 06:01:31;;;;;;;54.67;16.20;;;15.60;99.90;;;;;;5073836;28;20170;-73
2023/09/02 06:03:57;;;;;;;49.60;16.03;;;15.60;99.90;;;;;;5073772;28;20206;-73
2023/09/02 06:06:23;;;;;;;55.17;16.33;;;15.70;99.90;;;;;;5073858;28;20176;-74
2023/09/02 06:08:48;;;;;;;45.03;16.67;;;15.70;99.90;;;;;;5074091;28;20170;-73
2023/09/02 06:11:14;;;;;;;38.13;14.77;;;15.80;99.90;;;;;;5073782;28;20813;-72
2023/09/02 06:13:40;;;;;;;59.37;15.47;;;15.80;99.90;;;;;;5073960;28;20247;-73
2023/09/02 06:16:06;;;;;;;38.67;15.10;;;15.80;99.90;;;;;;5073661;28;20241;-73
2023/09/02 06:18:33;;;;;;;47.73;15.63;;;15.80;99.90;;;;;;5073769;28;20182;-73
2023/09/02 06:21:06;;;;;;;35.87;15.90;;;15.90;99.90;;;;;;5073804;28;20166;-73
2023/09/02 06:23:32;;;;;;;41.03;17.07;;;16.00;99.90;;;;;;5073394;28;20621;-73
2023/09/02 06:25:58;;;;;;;37.10;16.63;;;16.00;99.90;;;;;;5072394;28;20194;-73
2023/09/02 06:28:25;;;;;;;41.67;17.37;;;16.00;99.90;;;;;;5073461;28;20715;-73
2023/09/02 06:30:51;;;;;;;42.33;17.73;;;16.00;99.90;;;;;;5073615;28;20637;-73
2023/09/02 06:33:22;;;;;;;41.90;18.30;;;16.00;99.90;;;;;;5073352;28;20170;-73
2023/09/02 06:35:51;;;;;;;40.60;17.73;;;16.10;99.90;;;;;;5073465;28;20190;-73
2023/09/02 06:38:17;;;;;;;48.60;18.80;;;16.20;99.90;;;;;;5072994;28;20257;-73
2023/09/02 06:40:43;;;;;;;43.50;19.13;;;16.20;99.90;;;;;;5071957;28;20336;-73
2023/09/02 06:43:09;;;;;;;36.97;18.33;;;16.30;99.90;;;;;;5072882;28;20209;-73
2023/09/02 06:45:35;;;;;;;37.13;17.40;;;16.40;99.90;;;;;;5072270;28;20196;-73
2023/09/02 06:48:00;;;;;;;39.67;17.63;;;16.50;99.90;;;;;;5073253;28;20483;-73
2023/09/02 06:50:28;;;;;;;36.10;17.13;;;16.50;99.90;;;;;;5073132;28;20197;-73
2023/09/02 06:52:53;;;;;;;32.70;15.87;;;16.60;99.90;;;;;;5073195;28;20655;-73
2023/09/02 06:55:19;;;;;;;40.40;19.07;;;16.60;99.90;;;;;;5073056;28;20194;-73
2023/09/02 06:57:45;;;;;;;31.93;16.73;;;16.70;99.90;;;;;;5073033;28;20178;-73
2023/09/02 07:00:12;;;;;;;33.43;18.47;;;16.70;99.90;;;;;;5072986;28;20174;-74
2023/09/02 07:02:37;;;;;;;40.00;18.40;;;16.80;99.90;;;;;;5072453;28;20312;-73
2023/09/02 07:05:03;;;;;;;35.47;18.67;;;16.90;99.90;;;;;;5072799;28;20273;-74
2023/09/02 07:07:29;;;;;;;36.90;19.90;;;17.00;99.90;;;;;;5072901;28;20177;-74
2023/09/02 07:09:55;;;;;;;35.20;19.87;;;17.10;99.90;;;;;;5071893;28;20231;-73
2023/09/02 07:12:20;;;;;;;34.43;19.10;;;17.10;99.90;;;;;;5072571;28;20166;-73
2023/09/02 07:14:46;;;;;;;35.07;19.90;;;17.20;99.90;;;;;;5072700;28;20201;-73
2023/09/02 07:17:12;;;;;;;35.70;20.30;;;17.20;99.90;;;;;;5072622;28;20170;-73
2023/09/02 07:19:37;;;;;;;37.33;20.57;;;17.20;99.90;;;;;;5072726;28;20303;-74
2023/09/02 07:22:03;;;;;;;35.90;20.73;;;17.30;99.90;;;;;;5071509;28;20201;-73
2023/09/02 07:24:29;;;;;;;34.57;20.87;;;17.30;99.90;;;;;;5072435;28;20190;-74
2023/09/02 07:26:54;;;;;;;39.57;21.90;;;17.30;99.90;;;;;;5072660;28;20178;-74
2023/09/02 07:29:20;;;;;;;35.90;22.50;;;17.40;99.90;;;;;;5072387;28;20166;-74
2023/09/02 07:31:46;;;;;;;33.33;19.60;;;17.50;99.90;;;;;;5072131;28;20170;-74
2023/09/02 07:34:12;;;;;;;31.60;20.00;;;17.60;99.90;;;;;;5072066;28;20717;-73
2023/09/02 07:36:37;;;;;;;33.27;21.13;;;17.60;99.90;;;;;;5072415;28;20178;-74
2023/09/02 07:39:03;;;;;;;32.87;20.63;;;17.80;99.90;;;;;;5072156;28;20635;-73
2023/09/02 07:41:29;;;;;;;33.67;20.83;;;17.90;99.90;;;;;;5071888;28;20177;-74
2023/09/02 07:43:54;;;;;;;33.87;20.33;;;18.10;99.90;;;;;;5071862;28;20201;-74
2023/09/02 07:46:20;;;;;;;29.37;19.90;;;18.20;99.90;;;;;;5071858;28;20257;-73
2023/09/02 07:48:49;;;;;;;26.27;18.13;;;18.30;99.90;;;;;;5071983;28;20596;-74
2023/09/02 07:51:16;;;;;;;29.43;19.67;;;18.40;99.90;;;;;;5071011;28;20170;-73
2023/09/02 07:53:41;;;;;;;25.30;18.33;;;18.50;99.90;;;;;;5071900;28;20220;-74
2023/09/02 07:56:07;;;;;;;23.20;16.47;;;18.60;99.90;;;;;;5071782;28;20229;-74
2023/09/02 07:58:33;;;;;;;26.00;17.13;;;18.90;99.90;;;;;;5072050;28;20181;-74
2023/09/02 08:00:58;;;;;;;25.90;18.07;;;19.20;99.90;;;;;;5071884;28;20162;-74
2023/09/02 08:03:24;;;;;;;21.60;16.57;;;19.40;99.90;;;;;;5071617;28;20275;-73
2023/09/02 08:05:50;;;;;;;20.43;15.27;;;19.50;99.90;;;;;;5071823;28;20273;-75
2023/09/02 08:08:16;;;;;;;21.90;15.53;;;19.70;99.90;;;;;;5071662;28;20254;-74
2023/09/02 08:10:41;;;;;;;22.50;16.53;;;20.00;99.90;;;;;;5071641;28;20574;-74
2023/09/02 08:13:07;;;;;;;19.10;15.80;;;20.40;99.90;;;;;;5071225;28;20657;-74
2023/09/02 08:15:33;;;;;;;19.65;15.00;;;20.70;99.90;;;;;;5071712;28;20216;-73
2023/09/02 08:17:59;;;;;;;15.57;13.27;;;21.00;99.90;;;;;;5071128;28;20245;-74
2023/09/02 08:20:25;;;;;;;17.23;13.55;;;21.40;99.90;;;;;;5070787;28;20793;-75
2023/09/02 08:22:51;;;;;;;15.97;13.27;;;21.80;99.90;;;;;;5071198;28;20198;-74
2023/09/02 08:25:17;;;;;;;14.27;12.10;;;21.90;99.90;;;;;;5071555;28;20326;-74
2023/09/02 08:27:46;;;;;;;16.58;12.95;;;21.90;99.90;;;;;;5070877;28;20174;-74
2023/09/02 08:30:13;;;;;;;16.15;12.25;;;21.90;99.90;;;;;;5071390;28;20169;-74
2023/09/02 08:32:39;;;;;;;16.35;12.30;;;22.00;99.90;;;;;;5071011;28;20174;-74
2023/09/02 08:35:06;;;;;;;16.88;12.88;;;22.20;99.90;;;;;;5071279;28;20663;-74
2023/09/02 08:37:32;;;;;;;13.13;11.43;;;22.60;99.90;;;;;;5071331;28;20529;-74
2023/09/02 08:39:58;;;;;;;15.43;12.02;;;23.00;99.90;;;;;;5071356;28;20244;-74
2023/09/02 08:42:25;;;;;;;15.80;11.43;;;23.60;99.90;;;;;;5070835;28;20464;-74
2023/09/02 08:44:53;;;;;;;12.52;9.93;;;24.10;99.90;;;;;;5071246;28;20198;-73
2023/09/02 08:47:20;;;;;;;11.98;9.48;;;24.70;99.90;;;;;;5071124;28;20167;-73
2023/09/02 08:49:46;;;;;;;9.95;8.95;;;25.30;99.90;;;;;;5071234;28;20519;-73
2023/09/02 08:52:13;;;;;;;9.70;8.40;;;25.80;99.90;;;;;;5070703;28;20257;-73
2023/09/02 08:54:41;;;;;;;8.48;7.68;;;26.40;99.90;;;;;;5070962;28;20216;-74
2023/09/02 08:57:07;;;;;;;10.93;8.25;;;27.10;99.90;;;;;;5071085;28;20174;-74
2023/09/02 08:59:33;;;;;;;8.10;7.15;;;27.60;99.90;;;;;;5071136;28;20203;-73
2023/09/02 09:02:00;;;;;;;10.00;7.68;;;27.90;99.90;;;;;;5073298;28;20166;-75
2023/09/02 09:04:29;;;;;;;8.27;7.47;;;28.10;99.90;;;;;;5075148;28;20190;-75
2023/09/02 09:06:55;;;;;;;8.00;6.70;;;28.70;99.90;;;;;;5075154;28;20170;-74
2023/09/02 09:09:22;;;;;;;7.97;7.13;;;29.30;99.90;;;;;;5074971;28;20217;-74
2023/09/02 09:11:50;;;;;;;9.18;7.28;;;29.60;99.90;;;;;;5074983;28;20638;-75
2023/09/02 09:14:17;;;;;;;8.20;7.30;;;29.60;99.90;;;;;;5074942;28;20335;-73
2023/09/02 09:16:45;;;;;;;7.15;6.45;;;29.60;99.90;;;;;;5074967;28;21091;-74
2023/09/02 09:19:11;;;;;;;6.80;6.13;;;29.50;99.90;;;;;;5074844;28;20618;-74
2023/09/02 09:21:36;;;;;;;8.02;7.22;;;29.80;99.90;;;;;;5073865;28;20257;-74
2023/09/02 09:24:02;;;;;;;7.53;6.72;;;30.30;99.90;;;;;;5074645;28;20540;-73
2023/09/02 09:26:30;;;;;;;7.72;6.93;;;30.70;99.90;;;;;;5074130;28;20640;-73
2023/09/02 09:28:57;;;;;;;9.27;8.10;;;31.10;99.90;;;;;;5074815;28;20166;-73
2023/09/02 09:31:23;;;;;;;10.23;9.23;;;31.50;99.90;;;;;;5074414;28;20166;-74
2023/09/02 09:34:00;;;;;;;9.18;8.02;;;31.80;99.90;;;;;;5074479;28;20180;-76
2023/09/02 09:36:29;;;;;;;9.43;6.97;;;31.90;99.90;;;;;;5074752;28;20651;-75
2023/09/02 09:38:59;;;;;;;8.55;6.30;;;31.90;99.90;;;;;;5074549;28;20200;-75
2023/09/02 09:41:26;;;;;;;6.60;6.00;;;31.90;99.90;;;;;;5073991;28;20190;-75
2023/09/02 09:44:11;;;;;;;7.88;7.13;;;31.90;99.90;;;;;;5074204;28;20194;-74
2023/09/02 09:46:43;;;;;;;7.47;6.82;;;31.90;99.90;;;;;;5074430;28;20166;-73
2023/09/02 09:49:20;;;;;;;7.78;6.07;;;31.60;99.90;;;;;;5072860;28;20178;-73
2023/09/02 09:51:46;;;;;;;7.13;6.20;;;31.10;99.90;;;;;;5073591;28;20248;-73
2023/09/02 09:54:12;;;;;;;6.20;5.60;;;30.70;99.90;;;;;;5074057;28;20289;-73
2023/09/02 09:56:44;;;;;;;5.75;5.15;;;30.30;99.90;;;;;;5074150;28;20253;-74
2023/09/02 09:59:10;;;;;;;5.90;5.22;;;30.10;99.90;;;;;;5074062;28;20181;-74
2023/09/02 10:01:36;;;;;;;5.75;4.25;;;29.70;99.90;;;;;;5074234;28;20178;-73
2023/09/02 10:04:08;;;;;;;4.80;4.22;;;29.60;99.90;;;;;;5073855;28;20292;-74
2023/09/02 10:06:39;;;;;;;4.60;4.20;;;29.80;99.90;;;;;;5074004;28;20182;-74
2023/09/02 10:09:05;;;;;;;4.40;4.00;;;30.20;99.90;;;;;;5073988;28;20238;-74
2023/09/02 10:11:31;;;;;;;5.10;3.65;;;30.40;99.90;;;;;;5073880;28;20241;-74
2023/09/02 10:13:59;;;;;;;4.85;4.25;;;30.70;99.90;;;;;;5072974;28;20548;-74
2023/09/02 10:16:25;;;;;;;4.72;4.10;;;30.60;99.90;;;;;;5073771;28;20801;-74
2023/09/02 10:18:51;;;;;;;4.43;4.03;;;30.70;99.90;;;;;;5073727;28;20177;-74
2023/09/02 10:21:18;;;;;;;4.60;4.22;;;31.00;99.90;;;;;;5072568;28;20178;-73
2023/09/02 10:23:52;;;;;;;4.30;3.92;;;30.80;99.90;;;;;;5073641;28;20257;-74
2023/09/02 10:26:47;;;;;;;4.25;3.85;;;30.80;99.90;;;;;;5073962;28;20177;-74
2023/09/02 10:29:13;;;;;;;5.78;3.42;;;31.00;99.90;;;;;;5073894;28;20258;-74
2023/09/02 10:31:42;;;;;;;3.83;3.53;;;31.00;99.90;;;;;;5073561;28;20167;-74
2023/09/02 10:34:16;;;;;;;4.38;3.97;;;31.00;99.90;;;;;;5073623;28;20190;-74
2023/09/02 10:36:47;;;;;;;4.07;3.70;;;30.70;99.90;;;;;;5073543;28;20712;-74
2023/09/02 10:39:35;;;;;;;4.18;3.78;;;30.40;99.90;;;;;;5073491;28;20228;-74
2023/09/02 10:42:03;;;;;;;3.83;3.50;;;30.40;99.90;;;;;;5073090;28;20186;-74
2023/09/02 10:44:30;;;;;;;5.22;3.33;;;30.40;99.90;;;;;;5073343;28;20194;-73
2023/09/02 10:46:56;;;;;;;4.07;3.47;;;30.60;99.90;;;;;;5073492;28;20169;-74
2023/09/02 10:49:23;;;;;;;3.58;3.28;;;30.50;99.90;;;;;;5073400;28;20177;-74
2023/09/02 10:51:50;;;;;;;3.63;3.33;;;30.40;99.90;;;;;;5073156;28;20174;-73
2023/09/02 10:54:15;;;;;;;3.85;3.55;;;30.10;99.90;;;;;;5073133;28;20240;-73
2023/09/02 10:56:41;;;;;;;3.30;3.00;;;29.80;99.90;;;;;;5073745;28;20170;-74
2023/09/02 10:59:07;;;;;;;5.95;5.45;;;29.60;99.90;;;;;;5073386;28;20536;-73
2023/09/02 11:01:47;;;;;;;4.68;4.28;;;29.50;99.90;;;;;;5072406;28;20170;-73
2023/09/02 11:04:13;;;;;;;4.63;4.28;;;29.50;99.90;;;;;;5072891;28;20213;-73
2023/09/02 11:07:16;;;;;;;5.25;4.85;;;29.40;99.90;;;;;;5072963;28;20166;-73
2023/09/02 11:09:58;;;;;;;6.07;5.55;;;29.10;99.90;;;;;;5073113;28;20247;-73
2023/09/02 11:12:24;;;;;;;6.85;6.35;;;29.10;99.90;;;;;;5072863;28;20849;-73
2023/09/02 11:15:08;;;;;;;6.43;5.38;;;29.30;99.90;;;;;;5072721;28;20281;-73
2023/09/02 11:17:43;;;;;;;13.30;12.50;;;29.30;99.90;;;;;;5072873;28;20181;-75
2023/09/02 11:20:11;;;;;;;12.23;11.43;;;28.90;99.90;;;;;;5072642;28;20563;-73
2023/09/02 11:23:20;;;;;;;8.65;8.05;;;28.80;99.90;;;;;;5071889;28;20202;-73
2023/09/02 11:25:45;;;;;;;6.05;5.68;;;28.90;99.90;;;;;;4989784;28;20196;-74
2023/09/02 11:28:17;;;;;;;11.38;10.73;;;28.90;99.90;;;;;;5059608;28;20531;-74
2023/09/02 11:31:09;;;;;;;6.70;6.22;;;28.80;99.90;;;;;;5072141;28;20253;-73
2023/09/02 11:33:36;;;;;;;11.80;11.00;;;28.70;99.90;;;;;;5072047;28;20170;-73
2023/09/02 11:36:15;;;;;;;12.45;11.63;;;28.40;99.90;;;;;;5072256;28;20290;-73
2023/09/02 11:38:41;;;;;;;11.07;10.48;;;27.80;99.90;;;;;;5072184;28;20531;-73
2023/09/02 11:41:07;;;;;;;9.23;8.63;;;27.50;99.90;;;;;;5070815;28;20193;-74
2023/09/02 11:43:34;;;;;;;8.80;8.23;;;27.50;99.90;;;;;;5070415;28;20305;-73
2023/09/02 11:46:01;;;;;;;10.75;9.88;;;27.50;99.90;;;;;;5071891;28;20189;-73
2023/09/02 11:48:27;;;;;;;12.10;11.50;;;27.20;99.90;;;;;;5072178;28;20171;-73
2023/09/02 11:50:55;;;;;;;7.82;7.43;;;26.80;99.90;;;;;;5072113;28;20197;-73
2023/09/02 11:53:20;;;;;;;6.40;5.88;;;26.90;99.90;;;;;;5071746;28;20192;-73
2023/09/02 11:55:46;;;;;;;6.47;5.65;;;27.00;99.90;;;;;;5071951;28;20190;-73
2023/09/02 11:58:16;;;;;;;7.85;7.38;;;27.10;99.90;;;;;;5071898;28;20181;-73
2023/09/02 12:00:42;;;;;;;6.05;5.65;;;27.50;99.90;;;;;;5071837;28;20636;-74
2023/09/02 12:03:08;;;;;;;5.45;4.95;;;28.10;99.90;;;;;;5071649;28;20682;-73
2023/09/02 12:05:45;;;;;;;3.72;3.30;;;28.50;99.90;;;;;;5070677;28;20198;-73
2023/09/02 12:08:10;;;;;;;3.35;3.13;;;28.90;99.90;;;;;;5071954;28;20259;-73
2023/09/02 12:10:37;;;;;;;3.30;3.00;;;29.00;99.90;;;;;;5072246;28;20216;-73
2023/09/02 12:13:03;;;;;;;4.85;3.28;;;28.80;99.90;;;;;;5071590;28;20204;-73
2023/09/02 12:15:32;;;;;;;3.55;2.75;;;28.60;99.90;;;;;;5071683;28;20240;-73
2023/09/02 12:17:58;;;;;;;3.88;3.55;;;28.40;99.90;;;;;;5072055;28;20170;-73
2023/09/02 12:20:24;;;;;;;4.22;3.65;;;28.60;99.90;;;;;;5071707;28;20509;-73
2023/09/02 12:22:50;;;;;;;4.45;4.00;;;28.80;99.90;;;;;;5071219;28;20209;-74
2023/09/02 12:25:21;;;;;;;3.42;3.13;;;28.90;99.90;;;;;;5071398;28;20185;-74
2023/09/02 12:27:47;;;;;;;5.22;4.82;;;29.30;99.90;;;;;;5071646;28;20173;-73
2023/09/02 12:30:23;;;;;;;3.95;3.63;;;29.80;99.90;;;;;;5071638;28;20177;-73
2023/09/02 12:32:49;;;;;;;3.50;3.20;;;30.00;99.90;;;;;;5071037;28;20170;-73
2023/09/02 12:35:15;;;;;;;2.95;2.75;;;30.30;99.90;;;;;;5071060;28;20574;-74